sensor_id;sensor_type;location;lat;lon;timestamp;P1;durP1;ratioP1;P2;durP2;ratioP2
1682;SDS011;13252;53.596;10.060;2023-10-09T00:00:07;4.80;;;2.83;;
1682;SDS011;13252;53.596;10.060;2023-10-09T00:03:02;5.57;;;2.80;;
1682;SDS011;13252;53.596;10.060;2023-10-09T00:05:34;5.27;;;3.30;;
1682;SDS011;13252;53.596;10.060;2023-10-09T00:08:12;5.80;;;2.63;;
1682;SDS011;13252;53.596;10.060;2023-10-09T00:10:44;4.07;;;2.57;;
1682;SDS011;13252;53.596;10.060;2023-10-09T00:13:16;3.93;;;2.50;;
1682;SDS011;13252;53.596;10.060;2023-10-09T00:15:45;4.57;;;2.83;;
1682;SDS011;13252;53.596;10.060;2023-10-09T00:18:19;6.10;;;2.67;;
1682;SDS011;13252;53.596;10.060;2023-10-09T00:20:57;5.70;;;2.80;;
1682;SDS011;13252;53.596;10.060;2023-10-09T00:23:37;4.70;;;2.07;;
1682;SDS011;13252;53.596;10.060;2023-10-09T00:26:05;5.93;;;2.83;;
1682;SDS011;13252;53.596;10.060;2023-10-09T00:28:43;4.90;;;2.90;;
1682;SDS011;13252;53.596;10.060;2023-10-09T00:31:11;5.57;;;2.83;;
1682;SDS011;13252;53.596;10.060;2023-10-09T00:33:42;4.83;;;2.43;;
1682;SDS011;13252;53.596;10.060;2023-10-09T00:36:12;5.97;;;2.70;;
1682;SDS011;13252;53.596;10.060;2023-10-09T00:38:44;5.13;;;2.70;;
1682;SDS011;13252;53.596;10.060;2023-10-09T00:41:14;4.17;;;2.70;;
1682;SDS011;13252;53.596;10.060;2023-10-09T00:43:46;6.50;;;2.70;;
1682;SDS011;13252;53.596;10.060;2023-10-09T00:46:16;6.77;;;3.50;;
1682;SDS011;13252;53.596;10.060;2023-10-09T00:48:52;3.43;;;2.10;;
1682;SDS011;13252;53.596;10.060;2023-10-09T00:51:23;6.43;;;2.70;;
1682;SDS011;13252;53.596;10.060;2023-10-09T00:53:54;9.40;;;2.67;;
1682;SDS011;13252;53.596;10.060;2023-10-09T00:56:24;4.37;;;2.77;;
1682;SDS011;13252;53.596;10.060;2023-10-09T00:59:06;7.27;;;2.70;;
1682;SDS011;13252;53.596;10.060;2023-10-09T01:01:41;7.73;;;2.93;;
1682;SDS011;13252;53.596;10.060;2023-10-09T01:04:15;4.90;;;2.10;;
1682;SDS011;13252;53.596;10.060;2023-10-09T01:06:46;5.73;;;2.20;;
1682;SDS011;13252;53.596;10.060;2023-10-09T01:09:19;9.10;;;2.10;;
1682;SDS011;13252;53.596;10.060;2023-10-09T01:11:49;6.00;;;2.80;;
1682;SDS011;13252;53.596;10.060;2023-10-09T01:14:30;5.47;;;2.63;;
1682;SDS011;13252;53.596;10.060;2023-10-09T01:17:02;11.83;;;3.30;;
1682;SDS011;13252;53.596;10.060;2023-10-09T01:19:35;4.30;;;2.40;;
1682;SDS011;13252;53.596;10.060;2023-10-09T01:22:05;7.30;;;2.30;;
1682;SDS011;13252;53.596;10.060;2023-10-09T01:24:41;5.70;;;2.50;;
1682;SDS011;13252;53.596;10.060;2023-10-09T01:27:09;6.00;;;3.00;;
1682;SDS011;13252;53.596;10.060;2023-10-09T01:29:42;6.90;;;2.87;;
1682;SDS011;13252;53.596;10.060;2023-10-09T01:32:10;10.53;;;2.63;;
1682;SDS011;13252;53.596;10.060;2023-10-09T01:34:44;7.70;;;3.00;;
1682;SDS011;13252;53.596;10.060;2023-10-09T01:37:15;3.73;;;2.20;;
1682;SDS011;13252;53.596;10.060;2023-10-09T01:39:47;6.43;;;2.33;;
1682;SDS011;13252;53.596;10.060;2023-10-09T01:42:17;4.93;;;2.77;;
1682;SDS011;13252;53.596;10.060;2023-10-09T01:44:54;5.17;;;2.80;;
1682;SDS011;13252;53.596;10.060;2023-10-09T01:47:24;10.13;;;3.10;;
1682;SDS011;13252;53.596;10.060;2023-10-09T01:49:59;4.07;;;2.27;;
1682;SDS011;13252;53.596;10.060;2023-10-09T01:52:31;9.10;;;2.53;;
1682;SDS011;13252;53.596;10.060;2023-10-09T01:55:04;5.87;;;2.97;;
1682;SDS011;13252;53.596;10.060;2023-10-09T01:57:34;10.53;;;2.73;;
1682;SDS011;13252;53.596;10.060;2023-10-09T02:00:06;4.50;;;2.20;;
1682;SDS011;13252;53.596;10.060;2023-10-09T02:02:37;6.33;;;2.40;;
1682;SDS011;13252;53.596;10.060;2023-10-09T02:05:09;4.60;;;1.97;;
1682;SDS011;13252;53.596;10.060;2023-10-09T02:07:51;7.43;;;2.60;;
1682;SDS011;13252;53.596;10.060;2023-10-09T02:10:21;11.10;;;3.13;;
1682;SDS011;13252;53.596;10.060;2023-10-09T02:12:58;7.53;;;2.30;;
1682;SDS011;13252;53.596;10.060;2023-10-09T02:15:34;3.53;;;2.43;;
1682;SDS011;13252;53.596;10.060;2023-10-09T02:18:18;8.20;;;2.80;;
1682;SDS011;13252;53.596;10.060;2023-10-09T02:21:04;7.57;;;2.10;;
1682;SDS011;13252;53.596;10.060;2023-10-09T02:23:40;6.17;;;2.57;;
1682;SDS011;13252;53.596;10.060;2023-10-09T02:26:14;3.73;;;1.93;;
1682;SDS011;13252;53.596;10.060;2023-10-09T02:28:46;4.20;;;2.20;;
1682;SDS011;13252;53.596;10.060;2023-10-09T02:31:26;10.63;;;3.07;;
1682;SDS011;13252;53.596;10.060;2023-10-09T02:34:02;5.60;;;2.60;;
1682;SDS011;13252;53.596;10.060;2023-10-09T02:36:38;5.27;;;2.50;;
1682;SDS011;13252;53.596;10.060;2023-10-09T02:39:08;16.10;;;2.67;;
1682;SDS011;13252;53.596;10.060;2023-10-09T02:41:51;6.97;;;2.63;;
1682;SDS011;13252;53.596;10.060;2023-10-09T02:44:24;9.10;;;3.20;;
1682;SDS011;13252;53.596;10.060;2023-10-09T02:46:53;9.23;;;2.73;;
1682;SDS011;13252;53.596;10.060;2023-10-09T02:49:24;5.87;;;2.70;;
1682;SDS011;13252;53.596;10.060;2023-10-09T02:51:53;9.43;;;2.70;;
1682;SDS011;13252;53.596;10.060;2023-10-09T02:54:20;3.57;;;2.57;;
1682;SDS011;13252;53.596;10.060;2023-10-09T02:57:03;8.13;;;2.50;;
1682;SDS011;13252;53.596;10.060;2023-10-09T02:59:35;8.80;;;2.57;;
1682;SDS011;13252;53.596;10.060;2023-10-09T03:02:05;5.33;;;2.63;;
1682;SDS011;13252;53.596;10.060;2023-10-09T03:04:33;6.70;;;2.40;;
1682;SDS011;13252;53.596;10.060;2023-10-09T03:07:01;4.47;;;2.57;;
1682;SDS011;13252;53.596;10.060;2023-10-09T03:09:30;7.27;;;2.90;;
1682;SDS011;13252;53.596;10.060;2023-10-09T03:11:59;6.67;;;2.13;;
1682;SDS011;13252;53.596;10.060;2023-10-09T03:14:32;6.10;;;2.50;;
1682;SDS011;13252;53.596;10.060;2023-10-09T03:17:02;12.53;;;2.27;;
1682;SDS011;13252;53.596;10.060;2023-10-09T03:19:30;9.40;;;2.17;;
1682;SDS011;13252;53.596;10.060;2023-10-09T03:22:04;6.17;;;2.77;;
1682;SDS011;13252;53.596;10.060;2023-10-09T03:24:37;5.67;;;2.40;;
1682;SDS011;13252;53.596;10.060;2023-10-09T03:27:05;3.70;;;2.53;;
1682;SDS011;13252;53.596;10.060;2023-10-09T03:29:34;6.37;;;2.83;;
1682;SDS011;13252;53.596;10.060;2023-10-09T03:32:03;6.00;;;2.30;;
1682;SDS011;13252;53.596;10.060;2023-10-09T03:34:32;3.40;;;2.63;;
1682;SDS011;13252;53.596;10.060;2023-10-09T03:37:00;3.40;;;2.37;;
1682;SDS011;13252;53.596;10.060;2023-10-09T03:39:32;6.07;;;2.07;;
1682;SDS011;13252;53.596;10.060;2023-10-09T03:42:07;6.53;;;2.10;;
1682;SDS011;13252;53.596;10.060;2023-10-09T03:44:46;5.77;;;2.07;;
1682;SDS011;13252;53.596;10.060;2023-10-09T03:47:19;6.27;;;2.43;;
1682;SDS011;13252;53.596;10.060;2023-10-09T03:49:49;5.77;;;2.40;;
1682;SDS011;13252;53.596;10.060;2023-10-09T03:52:19;5.10;;;2.33;;
1682;SDS011;13252;53.596;10.060;2023-10-09T03:54:51;8.90;;;3.63;;
1682;SDS011;13252;53.596;10.060;2023-10-09T03:57:19;4.60;;;2.93;;
1682;SDS011;13252;53.596;10.060;2023-10-09T03:59:49;5.90;;;2.90;;
1682;SDS011;13252;53.596;10.060;2023-10-09T04:02:18;3.10;;;2.40;;
1682;SDS011;13252;53.596;10.060;2023-10-09T04:04:48;6.90;;;2.50;;
1682;SDS011;13252;53.596;10.060;2023-10-09T04:07:17;5.60;;;2.67;;
1682;SDS011;13252;53.596;10.060;2023-10-09T04:09:45;4.17;;;2.60;;
1682;SDS011;13252;53.596;10.060;2023-10-09T04:12:15;7.57;;;2.70;;
1682;SDS011;13252;53.596;10.060;2023-10-09T04:14:53;3.83;;;2.27;;
1682;SDS011;13252;53.596;10.060;2023-10-09T04:17:28;6.93;;;2.80;;
1682;SDS011;13252;53.596;10.060;2023-10-09T04:20:02;3.60;;;2.10;;
1682;SDS011;13252;53.596;10.060;2023-10-09T04:22:48;10.80;;;2.47;;
1682;SDS011;13252;53.596;10.060;2023-10-09T04:25:26;7.50;;;2.97;;
1682;SDS011;13252;53.596;10.060;2023-10-09T04:27:54;5.97;;;2.83;;
1682;SDS011;13252;53.596;10.060;2023-10-09T04:30:37;10.13;;;2.57;;
1682;SDS011;13252;53.596;10.060;2023-10-09T04:33:09;8.63;;;3.33;;
1682;SDS011;13252;53.596;10.060;2023-10-09T04:35:54;10.27;;;2.70;;
1682;SDS011;13252;53.596;10.060;2023-10-09T04:38:36;9.63;;;2.60;;
1682;SDS011;13252;53.596;10.060;2023-10-09T04:41:05;5.30;;;2.37;;
1682;SDS011;13252;53.596;10.060;2023-10-09T04:43:34;8.03;;;2.93;;
1682;SDS011;13252;53.596;10.060;2023-10-09T04:46:02;5.87;;;2.53;;
1682;SDS011;13252;53.596;10.060;2023-10-09T04:48:39;3.23;;;1.80;;
1682;SDS011;13252;53.596;10.060;2023-10-09T04:51:14;6.93;;;2.80;;
1682;SDS011;13252;53.596;10.060;2023-10-09T04:53:47;4.87;;;2.40;;
1682;SDS011;13252;53.596;10.060;2023-10-09T04:56:26;4.57;;;2.20;;
1682;SDS011;13252;53.596;10.060;2023-10-09T04:58:58;5.23;;;2.30;;
1682;SDS011;13252;53.596;10.060;2023-10-09T05:01:35;4.20;;;2.63;;
1682;SDS011;13252;53.596;10.060;2023-10-09T05:04:10;4.23;;;2.37;;
1682;SDS011;13252;53.596;10.060;2023-10-09T05:06:55;6.07;;;3.10;;
1682;SDS011;13252;53.596;10.060;2023-10-09T05:09:22;6.97;;;2.60;;
1682;SDS011;13252;53.596;10.060;2023-10-09T05:11:50;3.27;;;2.33;;
1682;SDS011;13252;53.596;10.060;2023-10-09T05:14:21;6.40;;;3.10;;
1682;SDS011;13252;53.596;10.060;2023-10-09T05:16:54;9.23;;;2.57;;
1682;SDS011;13252;53.596;10.060;2023-10-09T05:19:27;4.90;;;2.20;;
1682;SDS011;13252;53.596;10.060;2023-10-09T05:22:09;4.97;;;2.50;;
1682;SDS011;13252;53.596;10.060;2023-10-09T05:24:57;5.73;;;2.70;;
1682;SDS011;13252;53.596;10.060;2023-10-09T05:27:25;7.87;;;4.00;;
1682;SDS011;13252;53.596;10.060;2023-10-09T05:30:08;5.13;;;2.77;;
1682;SDS011;13252;53.596;10.060;2023-10-09T05:32:54;7.23;;;2.80;;
1682;SDS011;13252;53.596;10.060;2023-10-09T05:35:24;6.20;;;3.43;;
1682;SDS011;13252;53.596;10.060;2023-10-09T05:38:07;4.00;;;2.37;;
1682;SDS011;13252;53.596;10.060;2023-10-09T05:40:49;5.87;;;2.63;;
1682;SDS011;13252;53.596;10.060;2023-10-09T05:43:20;4.00;;;2.97;;
1682;SDS011;13252;53.596;10.060;2023-10-09T05:46:07;5.60;;;2.83;;
1682;SDS011;13252;53.596;10.060;2023-10-09T05:48:37;6.73;;;3.17;;
1682;SDS011;13252;53.596;10.060;2023-10-09T05:51:21;7.10;;;2.50;;
1682;SDS011;13252;53.596;10.060;2023-10-09T05:54:06;5.13;;;2.53;;
1682;SDS011;13252;53.596;10.060;2023-10-09T05:56:52;7.40;;;2.70;;
1682;SDS011;13252;53.596;10.060;2023-10-09T05:59:37;6.23;;;2.40;;
1682;SDS011;13252;53.596;10.060;2023-10-09T06:02:22;6.83;;;2.70;;
1682;SDS011;13252;53.596;10.060;2023-10-09T06:05:28;7.03;;;2.50;;
1682;SDS011;13252;53.596;10.060;2023-10-09T06:08:08;6.90;;;2.57;;
1682;SDS011;13252;53.596;10.060;2023-10-09T06:10:39;9.80;;;2.60;;
1682;SDS011;13252;53.596;10.060;2023-10-09T06:13:08;4.07;;;2.73;;
1682;SDS011;13252;53.596;10.060;2023-10-09T06:16:03;10.60;;;2.40;;
1682;SDS011;13252;53.596;10.060;2023-10-09T06:18:46;7.30;;;3.40;;
1682;SDS011;13252;53.596;10.060;2023-10-09T06:21:36;7.70;;;2.97;;
1682;SDS011;13252;53.596;10.060;2023-10-09T06:24:07;6.43;;;3.43;;
1682;SDS011;13252;53.596;10.060;2023-10-09T06:26:43;9.40;;;2.27;;
1682;SDS011;13252;53.596;10.060;2023-10-09T06:29:39;5.80;;;3.00;;
1682;SDS011;13252;53.596;10.060;2023-10-09T06:32:18;7.60;;;3.53;;
1682;SDS011;13252;53.596;10.060;2023-10-09T06:35:04;5.50;;;3.20;;
1682;SDS011;13252;53.596;10.060;2023-10-09T06:37:50;5.93;;;2.87;;
1682;SDS011;13252;53.596;10.060;2023-10-09T06:40:36;7.13;;;3.13;;
1682;SDS011;13252;53.596;10.060;2023-10-09T06:43:22;4.53;;;2.83;;
1682;SDS011;13252;53.596;10.060;2023-10-09T06:45:58;5.10;;;3.20;;
1682;SDS011;13252;53.596;10.060;2023-10-09T06:48:46;9.00;;;2.73;;
1682;SDS011;13252;53.596;10.060;2023-10-09T06:51:22;4.97;;;2.40;;
1682;SDS011;13252;53.596;10.060;2023-10-09T06:54:09;9.80;;;3.20;;
1682;SDS011;13252;53.596;10.060;2023-10-09T06:56:36;8.13;;;3.60;;
1682;SDS011;13252;53.596;10.060;2023-10-09T06:59:21;9.33;;;4.00;;
1682;SDS011;13252;53.596;10.060;2023-10-09T07:01:50;6.13;;;3.57;;
1682;SDS011;13252;53.596;10.060;2023-10-09T07:04:32;7.77;;;3.73;;
1682;SDS011;13252;53.596;10.060;2023-10-09T07:07:21;8.40;;;3.37;;
1682;SDS011;13252;53.596;10.060;2023-10-09T07:09:53;6.17;;;3.67;;
1682;SDS011;13252;53.596;10.060;2023-10-09T07:12:34;6.27;;;3.50;;
1682;SDS011;13252;53.596;10.060;2023-10-09T07:15:09;5.60;;;3.60;;
1682;SDS011;13252;53.596;10.060;2023-10-09T07:17:54;12.67;;;3.90;;
1682;SDS011;13252;53.596;10.060;2023-10-09T07:20:42;7.33;;;3.93;;
1682;SDS011;13252;53.596;10.060;2023-10-09T07:23:25;6.63;;;3.30;;
1682;SDS011;13252;53.596;10.060;2023-10-09T07:26:04;5.23;;;3.77;;
1682;SDS011;13252;53.596;10.060;2023-10-09T07:28:50;6.13;;;3.50;;
1682;SDS011;13252;53.596;10.060;2023-10-09T07:31:38;7.30;;;4.17;;
1682;SDS011;13252;53.596;10.060;2023-10-09T07:34:11;4.03;;;3.00;;
1682;SDS011;13252;53.596;10.060;2023-10-09T07:36:53;6.37;;;4.30;;
1682;SDS011;13252;53.596;10.060;2023-10-09T07:39:23;6.00;;;4.10;;
1682;SDS011;13252;53.596;10.060;2023-10-09T07:42:03;7.93;;;4.53;;
1682;SDS011;13252;53.596;10.060;2023-10-09T07:44:46;9.00;;;4.50;;
1682;SDS011;13252;53.596;10.060;2023-10-09T07:47:19;7.43;;;4.97;;
1682;SDS011;13252;53.596;10.060;2023-10-09T07:49:49;10.87;;;4.17;;
1682;SDS011;13252;53.596;10.060;2023-10-09T07:52:21;8.83;;;4.90;;
1682;SDS011;13252;53.596;10.060;2023-10-09T07:54:52;8.20;;;4.40;;
1682;SDS011;13252;53.596;10.060;2023-10-09T07:57:29;5.60;;;4.67;;
1682;SDS011;13252;53.596;10.060;2023-10-09T08:00:05;7.50;;;5.20;;
1682;SDS011;13252;53.596;10.060;2023-10-09T08:03:01;6.67;;;4.63;;
1682;SDS011;13252;53.596;10.060;2023-10-09T08:05:29;4.87;;;4.37;;
1682;SDS011;13252;53.596;10.060;2023-10-09T08:08:01;4.43;;;3.50;;
1682;SDS011;13252;53.596;10.060;2023-10-09T08:11:03;6.43;;;4.03;;
1682;SDS011;13252;53.596;10.060;2023-10-09T08:13:50;12.13;;;6.43;;
1682;SDS011;13252;53.596;10.060;2023-10-09T08:16:23;7.90;;;4.17;;
1682;SDS011;13252;53.596;10.060;2023-10-09T08:18:53;5.63;;;4.50;;
1682;SDS011;13252;53.596;10.060;2023-10-09T08:21:23;5.70;;;5.03;;
1682;SDS011;13252;53.596;10.060;2023-10-09T08:24:05;8.23;;;4.20;;
1682;SDS011;13252;53.596;10.060;2023-10-09T08:26:53;7.53;;;4.30;;
1682;SDS011;13252;53.596;10.060;2023-10-09T08:29:43;5.67;;;4.40;;
1682;SDS011;13252;53.596;10.060;2023-10-09T08:32:13;5.27;;;4.07;;
1682;SDS011;13252;53.596;10.060;2023-10-09T08:35:07;6.07;;;3.70;;
1682;SDS011;13252;53.596;10.060;2023-10-09T08:37:55;7.20;;;4.13;;
1682;SDS011;13252;53.596;10.060;2023-10-09T08:40:29;11.90;;;4.43;;
1682;SDS011;13252;53.596;10.060;2023-10-09T08:43:01;7.07;;;4.10;;
1682;SDS011;13252;53.596;10.060;2023-10-09T08:45:39;4.30;;;3.90;;
1682;SDS011;13252;53.596;10.060;2023-10-09T08:48:07;10.10;;;4.00;;
1682;SDS011;13252;53.596;10.060;2023-10-09T08:50:42;4.30;;;3.17;;
1682;SDS011;13252;53.596;10.060;2023-10-09T08:53:10;6.17;;;4.37;;
1682;SDS011;13252;53.596;10.060;2023-10-09T08:55:39;9.87;;;6.50;;
1682;SDS011;13252;53.596;10.060;2023-10-09T08:58:07;6.60;;;4.60;;
1682;SDS011;13252;53.596;10.060;2023-10-09T09:00:43;6.60;;;4.30;;
1682;SDS011;13252;53.596;10.060;2023-10-09T09:03:12;5.47;;;3.90;;
1682;SDS011;13252;53.596;10.060;2023-10-09T09:05:43;6.37;;;4.83;;
1682;SDS011;13252;53.596;10.060;2023-10-09T09:08:22;8.60;;;4.90;;
1682;SDS011;13252;53.596;10.060;2023-10-09T09:10:58;5.27;;;4.77;;
1682;SDS011;13252;53.596;10.060;2023-10-09T09:13:38;6.07;;;5.47;;
1682;SDS011;13252;53.596;10.060;2023-10-09T09:16:16;6.87;;;5.87;;
1682;SDS011;13252;53.596;10.060;2023-10-09T09:18:48;8.27;;;5.70;;
1682;SDS011;13252;53.596;10.060;2023-10-09T09:21:19;5.37;;;4.80;;
1682;SDS011;13252;53.596;10.060;2023-10-09T09:23:55;7.33;;;5.90;;
1682;SDS011;13252;53.596;10.060;2023-10-09T09:26:32;6.63;;;5.30;;
1682;SDS011;13252;53.596;10.060;2023-10-09T09:29:04;5.30;;;4.80;;
1682;SDS011;13252;53.596;10.060;2023-10-09T09:31:35;5.40;;;4.63;;
1682;SDS011;13252;53.596;10.060;2023-10-09T09:34:05;5.40;;;4.90;;
1682;SDS011;13252;53.596;10.060;2023-10-09T09:36:49;6.20;;;4.90;;
1682;SDS011;13252;53.596;10.060;2023-10-09T09:39:21;6.40;;;4.43;;
1682;SDS011;13252;53.596;10.060;2023-10-09T09:42:07;5.63;;;5.03;;
1682;SDS011;13252;53.596;10.060;2023-10-09T09:44:40;5.60;;;5.00;;
1682;SDS011;13252;53.596;10.060;2023-10-09T09:47:13;6.83;;;5.50;;
1682;SDS011;13252;53.596;10.060;2023-10-09T09:49:50;5.50;;;4.83;;
1682;SDS011;13252;53.596;10.060;2023-10-09T09:52:19;5.10;;;4.60;;
1682;SDS011;13252;53.596;10.060;2023-10-09T09:54:51;5.20;;;4.70;;
1682;SDS011;13252;53.596;10.060;2023-10-09T09:57:19;6.00;;;4.87;;
1682;SDS011;13252;53.596;10.060;2023-10-09T09:59:53;4.87;;;4.37;;
1682;SDS011;13252;53.596;10.060;2023-10-09T10:02:27;5.10;;;4.60;;
1682;SDS011;13252;53.596;10.060;2023-10-09T10:05:01;5.43;;;4.93;;
1682;SDS011;13252;53.596;10.060;2023-10-09T10:07:34;5.90;;;5.30;;
1682;SDS011;13252;53.596;10.060;2023-10-09T10:13:00;6.77;;;5.57;;
1682;SDS011;13252;53.596;10.060;2023-10-09T10:18:31;6.63;;;5.10;;
1682;SDS011;13252;53.596;10.060;2023-10-09T10:21:11;4.57;;;4.17;;
1682;SDS011;13252;53.596;10.060;2023-10-09T10:23:44;5.00;;;4.50;;
1682;SDS011;13252;53.596;10.060;2023-10-09T10:26:18;4.60;;;4.07;;
1682;SDS011;13252;53.596;10.060;2023-10-09T10:31:53;5.53;;;4.97;;
1682;SDS011;13252;53.596;10.060;2023-10-09T10:34:24;5.63;;;4.20;;
1682;SDS011;13252;53.596;10.060;2023-10-09T10:36:52;4.90;;;3.83;;
1682;SDS011;13252;53.596;10.060;2023-10-09T10:39:26;4.50;;;3.97;;
1682;SDS011;13252;53.596;10.060;2023-10-09T10:42:09;4.90;;;4.40;;
1682;SDS011;13252;53.596;10.060;2023-10-09T10:44:42;4.27;;;3.80;;
1682;SDS011;13252;53.596;10.060;2023-10-09T10:47:11;4.67;;;3.50;;
1682;SDS011;13252;53.596;10.060;2023-10-09T10:49:53;4.20;;;3.80;;
1682;SDS011;13252;53.596;10.060;2023-10-09T10:52:26;4.13;;;3.50;;
1682;SDS011;13252;53.596;10.060;2023-10-09T10:55:09;5.80;;;4.33;;
1682;SDS011;13252;53.596;10.060;2023-10-09T10:58:16;9.13;;;3.63;;
1682;SDS011;13252;53.596;10.060;2023-10-09T11:00:53;6.23;;;3.93;;
1682;SDS011;13252;53.596;10.060;2023-10-09T11:03:40;3.23;;;2.93;;
1682;SDS011;13252;53.596;10.060;2023-10-09T11:06:35;4.67;;;2.67;;
1682;SDS011;13252;53.596;10.060;2023-10-09T11:09:04;4.77;;;3.27;;
1682;SDS011;13252;53.596;10.060;2023-10-09T11:11:49;4.30;;;3.60;;
1682;SDS011;13252;53.596;10.060;2023-10-09T11:14:22;12.40;;;3.50;;
1682;SDS011;13252;53.596;10.060;2023-10-09T11:16:50;3.90;;;3.50;;
1682;SDS011;13252;53.596;10.060;2023-10-09T11:19:25;4.10;;;3.47;;
1682;SDS011;13252;53.596;10.060;2023-10-09T11:22:01;3.83;;;3.43;;
1682;SDS011;13252;53.596;10.060;2023-10-09T11:24:48;3.23;;;2.87;;
1682;SDS011;13252;53.596;10.060;2023-10-09T11:27:27;3.53;;;3.20;;
1682;SDS011;13252;53.596;10.060;2023-10-09T11:29:59;3.93;;;3.63;;
1682;SDS011;13252;53.596;10.060;2023-10-09T11:32:32;3.53;;;3.13;;
1682;SDS011;13252;53.596;10.060;2023-10-09T11:35:11;3.27;;;2.90;;
1682;SDS011;13252;53.596;10.060;2023-10-09T11:37:43;4.17;;;3.73;;
1682;SDS011;13252;53.596;10.060;2023-10-09T11:43:00;5.60;;;3.13;;
1682;SDS011;13252;53.596;10.060;2023-10-09T11:45:30;2.93;;;2.63;;
1682;SDS011;13252;53.596;10.060;2023-10-09T11:48:16;4.23;;;2.97;;
1682;SDS011;13252;53.596;10.060;2023-10-09T11:50:54;5.17;;;3.27;;
1682;SDS011;13252;53.596;10.060;2023-10-09T11:53:41;3.73;;;3.17;;
1682;SDS011;13252;53.596;10.060;2023-10-09T11:56:10;3.40;;;3.10;;
1682;SDS011;13252;53.596;10.060;2023-10-09T11:58:41;3.47;;;2.90;;
1682;SDS011;13252;53.596;10.060;2023-10-09T12:01:10;3.70;;;3.30;;
1682;SDS011;13252;53.596;10.060;2023-10-09T12:03:44;3.20;;;2.90;;
1682;SDS011;13252;53.596;10.060;2023-10-09T12:06:16;4.17;;;3.60;;
1682;SDS011;13252;53.596;10.060;2023-10-09T12:08:47;4.90;;;3.07;;
1682;SDS011;13252;53.596;10.060;2023-10-09T12:11:14;7.70;;;3.50;;
1682;SDS011;13252;53.596;10.060;2023-10-09T12:13:50;3.40;;;2.87;;
1682;SDS011;13252;53.596;10.060;2023-10-09T12:16:23;3.77;;;2.73;;
1682;SDS011;13252;53.596;10.060;2023-10-09T12:18:55;3.43;;;2.57;;
1682;SDS011;13252;53.596;10.060;2023-10-09T12:21:23;2.47;;;1.97;;
1682;SDS011;13252;53.596;10.060;2023-10-09T12:23:56;4.30;;;2.50;;
1682;SDS011;13252;53.596;10.060;2023-10-09T12:26:28;2.40;;;2.00;;
1682;SDS011;13252;53.596;10.060;2023-10-09T12:29:02;3.33;;;2.00;;
1682;SDS011;13252;53.596;10.060;2023-10-09T12:31:30;3.07;;;2.60;;
1682;SDS011;13252;53.596;10.060;2023-10-09T12:34:00;3.50;;;2.50;;
1682;SDS011;13252;53.596;10.060;2023-10-09T12:36:29;2.90;;;2.00;;
1682;SDS011;13252;53.596;10.060;2023-10-09T12:38:58;3.63;;;2.10;;
1682;SDS011;13252;53.596;10.060;2023-10-09T12:41:27;2.87;;;2.30;;
1682;SDS011;13252;53.596;10.060;2023-10-09T12:44:00;2.13;;;1.93;;
1682;SDS011;13252;53.596;10.060;2023-10-09T12:46:28;4.80;;;2.70;;
1682;SDS011;13252;53.596;10.060;2023-10-09T12:49:04;2.30;;;2.10;;
1682;SDS011;13252;53.596;10.060;2023-10-09T12:51:32;3.93;;;3.20;;
1682;SDS011;13252;53.596;10.060;2023-10-09T12:54:01;5.77;;;3.70;;
1682;SDS011;13252;53.596;10.060;2023-10-09T12:56:29;7.20;;;4.53;;
1682;SDS011;13252;53.596;10.060;2023-10-09T12:59:04;3.60;;;2.67;;
1682;SDS011;13252;53.596;10.060;2023-10-09T13:01:34;3.67;;;3.27;;
1682;SDS011;13252;53.596;10.060;2023-10-09T13:04:09;3.30;;;2.90;;
1682;SDS011;13252;53.596;10.060;2023-10-09T13:06:40;5.83;;;2.93;;
1682;SDS011;13252;53.596;10.060;2023-10-09T13:09:12;5.67;;;3.20;;
1682;SDS011;13252;53.596;10.060;2023-10-09T13:11:41;4.00;;;3.07;;
1682;SDS011;13252;53.596;10.060;2023-10-09T13:14:09;3.67;;;3.37;;
1682;SDS011;13252;53.596;10.060;2023-10-09T13:16:44;3.40;;;3.10;;
1682;SDS011;13252;53.596;10.060;2023-10-09T13:19:12;3.63;;;3.10;;
1682;SDS011;13252;53.596;10.060;2023-10-09T13:21:40;3.67;;;3.10;;
1682;SDS011;13252;53.596;10.060;2023-10-09T13:24:08;3.90;;;3.20;;
1682;SDS011;13252;53.596;10.060;2023-10-09T13:26:41;3.93;;;3.43;;
1682;SDS011;13252;53.596;10.060;2023-10-09T13:29:12;3.60;;;3.20;;
1682;SDS011;13252;53.596;10.060;2023-10-09T13:31:44;3.93;;;3.53;;
1682;SDS011;13252;53.596;10.060;2023-10-09T13:34:14;7.70;;;4.03;;
1682;SDS011;13252;53.596;10.060;2023-10-09T13:36:42;4.93;;;4.17;;
1682;SDS011;13252;53.596;10.060;2023-10-09T13:39:16;4.10;;;3.80;;
1682;SDS011;13252;53.596;10.060;2023-10-09T13:41:52;4.63;;;4.00;;
1682;SDS011;13252;53.596;10.060;2023-10-09T13:44:25;7.90;;;5.10;;
1682;SDS011;13252;53.596;10.060;2023-10-09T13:46:54;4.90;;;4.40;;
1682;SDS011;13252;53.596;10.060;2023-10-09T13:49:23;5.30;;;4.50;;
1682;SDS011;13252;53.596;10.060;2023-10-09T13:51:57;5.93;;;4.30;;
1682;SDS011;13252;53.596;10.060;2023-10-09T13:54:26;4.33;;;3.93;;
1682;SDS011;13252;53.596;10.060;2023-10-09T13:57:07;4.93;;;4.40;;
1682;SDS011;13252;53.596;10.060;2023-10-09T13:59:37;5.30;;;4.80;;
1682;SDS011;13252;53.596;10.060;2023-10-09T14:02:09;5.50;;;4.67;;
1682;SDS011;13252;53.596;10.060;2023-10-09T14:04:44;5.03;;;4.30;;
1682;SDS011;13252;53.596;10.060;2023-10-09T14:07:14;5.27;;;4.27;;
1682;SDS011;13252;53.596;10.060;2023-10-09T14:09:43;5.30;;;4.37;;
1682;SDS011;13252;53.596;10.060;2023-10-09T14:12:23;4.17;;;3.77;;
1682;SDS011;13252;53.596;10.060;2023-10-09T14:14:56;5.93;;;4.30;;
1682;SDS011;13252;53.596;10.060;2023-10-09T14:17:24;4.80;;;4.33;;
1682;SDS011;13252;53.596;10.060;2023-10-09T14:19:52;8.03;;;6.10;;
1682;SDS011;13252;53.596;10.060;2023-10-09T14:22:22;8.80;;;6.67;;
1682;SDS011;13252;53.596;10.060;2023-10-09T14:24:51;6.43;;;5.83;;
1682;SDS011;13252;53.596;10.060;2023-10-09T14:27:22;8.90;;;6.80;;
1682;SDS011;13252;53.596;10.060;2023-10-09T14:29:54;7.00;;;6.20;;
1682;SDS011;13252;53.596;10.060;2023-10-09T14:32:25;7.20;;;6.50;;
1682;SDS011;13252;53.596;10.060;2023-10-09T14:34:56;7.77;;;6.50;;
1682;SDS011;13252;53.596;10.060;2023-10-09T14:37:27;7.70;;;6.87;;
1682;SDS011;13252;53.596;10.060;2023-10-09T14:39:55;7.30;;;6.57;;
1682;SDS011;13252;53.596;10.060;2023-10-09T14:42:26;9.07;;;6.80;;
1682;SDS011;13252;53.596;10.060;2023-10-09T14:44:55;8.10;;;6.50;;
1682;SDS011;13252;53.596;10.060;2023-10-09T14:47:23;9.70;;;6.23;;
1682;SDS011;13252;53.596;10.060;2023-10-09T14:49:52;7.70;;;6.73;;
1682;SDS011;13252;53.596;10.060;2023-10-09T14:52:22;7.87;;;6.60;;
1682;SDS011;13252;53.596;10.060;2023-10-09T14:54:50;8.10;;;7.37;;
1682;SDS011;13252;53.596;10.060;2023-10-09T14:57:18;6.83;;;6.23;;
1682;SDS011;13252;53.596;10.060;2023-10-09T14:59:47;8.23;;;7.43;;
1682;SDS011;13252;53.596;10.060;2023-10-09T15:02:16;8.13;;;7.30;;
1682;SDS011;13252;53.596;10.060;2023-10-09T15:04:44;9.13;;;7.67;;
1682;SDS011;13252;53.596;10.060;2023-10-09T15:07:12;8.80;;;6.87;;
1682;SDS011;13252;53.596;10.060;2023-10-09T15:10:01;8.40;;;7.37;;
1682;SDS011;13252;53.596;10.060;2023-10-09T15:12:35;8.07;;;7.37;;
1682;SDS011;13252;53.596;10.060;2023-10-09T15:15:10;5.97;;;5.47;;
1682;SDS011;13252;53.596;10.060;2023-10-09T15:17:40;6.70;;;5.73;;
1682;SDS011;13252;53.596;10.060;2023-10-09T15:20:11;6.90;;;6.30;;
1682;SDS011;13252;53.596;10.060;2023-10-09T15:22:41;6.70;;;6.10;;
1682;SDS011;13252;53.596;10.060;2023-10-09T15:25:09;7.60;;;6.37;;
1682;SDS011;13252;53.596;10.060;2023-10-09T15:27:41;9.03;;;6.90;;
1682;SDS011;13252;53.596;10.060;2023-10-09T15:30:11;7.80;;;6.53;;
1682;SDS011;13252;53.596;10.060;2023-10-09T15:32:41;7.70;;;7.00;;
1682;SDS011;13252;53.596;10.060;2023-10-09T15:35:09;8.60;;;7.80;;
1682;SDS011;13252;53.596;10.060;2023-10-09T15:37:40;8.90;;;7.43;;
1682;SDS011;13252;53.596;10.060;2023-10-09T15:40:08;10.20;;;8.53;;
1682;SDS011;13252;53.596;10.060;2023-10-09T15:42:41;9.53;;;8.73;;